Time;durP1;ratioP1;P1;durP2;ratioP2;P2;SDS_P1;SDS_P2;PMS_P1;PMS_P2;Temp;Humidity;BMP_temperature;BMP_pressure;BME280_temperature;BME280_humidity;BME280_pressure;Samples;Min_cycle;Max_cycle;Signal;HPM_P1;HPM_P2
2020/12/29 00:01:37;;;;;;;22.17;11.30;;;;;;;1.54;89.82;97760.25;5156276;27;20556;-60
2020/12/29 00:04:05;;;;;;;21.60;11.10;;;;;;;1.69;89.67;97749.66;5154148;27;20491;-60
2020/12/29 00:06:32;;;;;;;24.00;12.53;;;;;;;1.66;89.46;97757.22;5156226;27;20482;-61
2020/12/29 00:08:59;;;;;;;22.47;11.40;;;;;;;1.57;89.60;97754.38;5154632;27;20766;-61
2020/12/29 00:11:26;;;;;;;23.50;11.70;;;;;;;1.51;89.97;97756.75;5156555;27;20489;-60
2020/12/29 00:13:53;;;;;;;21.73;11.20;;;;;;;1.38;90.38;97748.75;5156461;27;20494;-60
2020/12/29 00:16:20;;;;;;;19.80;10.70;;;;;;;1.36;90.55;97752.94;5154177;27;21239;-60
2020/12/29 00:18:47;;;;;;;23.87;11.53;;;;;;;1.34;90.11;97749.50;5156406;27;20521;-60
2020/12/29 00:21:18;;;;;;;21.33;11.07;;;;;;;1.30;90.16;97750.22;5152423;27;20562;-60
2020/12/29 00:23:44;;;;;;;23.63;10.90;;;;;;;1.26;90.17;97753.47;5155620;27;20466;-60
2020/12/29 00:26:12;;;;;;;20.87;11.27;;;;;;;1.20;90.10;97749.94;5154074;27;20495;-60
2020/12/29 00:28:39;;;;;;;21.50;10.43;;;;;;;1.13;90.07;97748.00;5155909;27;20476;-60
2020/12/29 00:31:05;;;;;;;19.20;10.70;;;;;;;1.11;89.99;97746.22;5152105;27;20269;-61
2020/12/29 00:33:33;;;;;;;17.13;8.90;;;;;;;0.96;89.69;97744.09;5156345;27;20237;-61
2020/12/29 00:36:00;;;;;;;21.03;9.97;;;;;;;0.77;90.24;97743.50;5153977;27;20255;-61
2020/12/29 00:38:27;;;;;;;18.83;9.70;;;;;;;0.75;90.02;97735.84;5156313;27;20896;-61
2020/12/29 00:40:53;;;;;;;20.60;9.77;;;;;;;0.64;90.32;97738.03;5153687;27;20240;-61
2020/12/29 00:43:20;;;;;;;17.90;9.40;;;;;;;0.63;89.77;97730.34;5155255;27;20299;-61
2020/12/29 00:45:47;;;;;;;16.07;9.50;;;;;;;0.57;89.83;97731.03;5153330;27;20565;-61
2020/12/29 00:48:13;;;;;;;16.60;9.47;;;;;;;0.64;89.47;97730.41;5155436;27;20859;-61
2020/12/29 00:50:41;;;;;;;16.55;9.05;;;;;;;0.49;89.90;97737.50;5153651;27;20602;-60
2020/12/29 00:53:08;;;;;;;20.73;8.90;;;;;;;0.43;90.04;97733.09;5155638;27;20505;-61
2020/12/29 00:55:34;;;;;;;15.77;9.27;;;;;;;0.35;90.16;97730.28;5153323;27;20700;-61
2020/12/29 00:58:01;;;;;;;15.98;8.65;;;;;;;0.33;90.07;97731.94;5155893;27;20867;-60
2020/12/29 01:00:28;;;;;;;21.75;9.32;;;;;;;0.38;90.04;97730.41;5152744;27;20324;-60
2020/12/29 01:02:54;;;;;;;16.17;9.25;;;;;;;0.34;90.07;97728.56;5155531;27;20289;-60
2020/12/29 01:05:21;;;;;;;16.70;9.00;;;;;;;0.33;89.84;97723.44;5155241;27;20234;-60
2020/12/29 01:07:48;;;;;;;15.27;8.67;;;;;;;0.26;89.99;97725.78;5157367;27;20656;-60
2020/12/29 01:10:15;;;;;;;16.35;9.23;;;;;;;0.26;89.76;97723.22;5156379;27;20480;-61
2020/12/29 01:12:41;;;;;;;17.15;9.20;;;;;;;0.32;89.82;97722.59;5157465;27;20523;-61
2020/12/29 01:15:08;;;;;;;17.20;9.43;;;;;;;0.23;89.62;97720.63;5155339;27;20237;-61
2020/12/29 01:17:34;;;;;;;14.57;8.20;;;;;;;0.24;89.76;97724.00;5154874;27;20293;-60
2020/12/29 01:20:01;;;;;;;16.67;8.90;;;;;;;0.14;90.35;97720.28;5155134;27;20237;-61
2020/12/29 01:22:28;;;;;;;20.20;9.65;;;;;;;0.13;89.98;97724.50;5157222;27;20574;-60
2020/12/29 01:24:55;;;;;;;16.38;8.60;;;;;;;0.04;90.32;97719.09;5154490;27;20695;-61
2020/12/29 01:27:22;;;;;;;20.48;9.70;;;;;;;0.12;90.49;97727.81;5156645;27;20194;-60
2020/12/29 01:29:48;;;;;;;21.25;10.57;;;;;;;0.09;90.19;97720.13;5141722;27;20532;-61
2020/12/29 01:32:15;;;;;;;19.55;10.10;;;;;;;0.08;90.14;97725.13;5156839;27;20814;-60
2020/12/29 01:34:41;;;;;;;18.38;9.82;;;;;;;0.17;90.39;97719.53;5155010;27;20233;-60
2020/12/29 01:37:08;;;;;;;24.15;10.77;;;;;;;0.19;90.32;97720.44;5157332;27;20202;-60
2020/12/29 01:39:35;;;;;;;22.63;11.30;;;;;;;0.10;90.37;97724.38;5155668;27;20280;-61
2020/12/29 01:42:03;;;;;;;23.67;11.60;;;;;;;0.11;90.11;97715.13;5157032;27;20198;-60
2020/12/29 01:44:29;;;;;;;21.13;10.90;;;;;;;0.23;90.12;97719.72;5154604;27;20320;-60
2020/12/29 01:46:56;;;;;;;21.10;11.25;;;;;;;0.04;90.36;97721.63;5156559;27;20517;-61
2020/12/29 01:49:23;;;;;;;16.58;9.27;;;;;;;0.06;90.86;97714.94;5155022;27;20250;-60
2020/12/29 01:51:50;;;;;;;21.15;10.40;;;;;;;0.13;90.35;97711.81;5156850;27;20202;-60
2020/12/29 01:54:16;;;;;;;22.75;10.98;;;;;;;0.09;90.40;97707.44;5151621;27;20213;-61
2020/12/29 01:56:43;;;;;;;25.13;12.45;;;;;;;0.08;90.46;97704.84;5160659;27;20233;-60
2020/12/29 01:59:12;;;;;;;22.35;11.10;;;;;;;0.15;90.30;97714.38;5158938;27;20277;-61
2020/12/29 02:01:40;;;;;;;80.00;30.85;;;;;;;0.06;90.91;97707.31;5160140;27;20599;-61
2020/12/29 02:04:07;;;;;;;28.23;13.25;;;;;;;0.03;91.00;97712.31;5158295;27;20198;-60
2020/12/29 02:06:34;;;;;;;18.08;10.23;;;;;;;0.05;91.07;97713.22;5160038;27;20226;-61
2020/12/29 02:09:01;;;;;;;30.70;14.13;;;;;;;-0.02;90.94;97712.16;5159226;27;20497;-61
2020/12/29 02:11:28;;;;;;;17.48;10.23;;;;;;;0.02;90.53;97710.59;5160208;27;20276;-60
2020/12/29 02:13:55;;;;;;;25.70;13.55;;;;;;;-0.08;91.05;97703.47;5160275;27;20194;-60
2020/12/29 02:16:23;;;;;;;23.95;11.80;;;;;;;-0.05;91.68;97713.72;5158531;27;20321;-60
2020/12/29 02:18:49;;;;;;;21.70;11.05;;;;;;;-0.05;90.84;97708.66;5160438;27;20301;-60
2020/12/29 02:21:16;;;;;;;25.20;12.80;;;;;;;-0.08;91.26;97714.47;5158203;27;20218;-61
2020/12/29 02:23:44;;;;;;;25.33;13.07;;;;;;;-0.10;91.08;97708.47;5160049;27;20198;-60
2020/12/29 02:26:27;;;;;;;22.27;11.88;;;;;;;-0.15;91.21;97705.78;5158299;27;20222;-61
2020/12/29 02:28:57;;;;;;;25.80;13.32;;;;;;;-0.11;91.56;97708.44;5160170;27;20205;-61
2020/12/29 02:31:24;;;;;;;23.40;11.52;;;;;;;-0.11;91.29;97709.28;5159615;27;20226;-60
2020/12/29 02:33:50;;;;;;;23.38;11.82;;;;;;;-0.17;91.03;97704.88;5159989;27;20294;-60
2020/12/29 02:36:17;;;;;;;27.67;14.10;;;;;;;-0.16;91.52;97706.59;5157795;27;20289;-61
2020/12/29 02:38:45;;;;;;;22.20;11.13;;;;;;;-0.19;91.66;97706.50;5159744;27;20298;-60
2020/12/29 02:41:12;;;;;;;28.65;13.40;;;;;;;-0.11;91.20;97705.91;5152781;27;20324;-60
2020/12/29 02:43:39;;;;;;;20.13;10.80;;;;;;;-0.14;91.23;97704.97;5159332;27;20233;-60
2020/12/29 02:46:05;;;;;;;17.95;10.10;;;;;;;-0.10;91.22;97711.00;5157045;27;20230;-61
2020/12/29 02:48:32;;;;;;;20.38;10.50;;;;;;;-0.09;91.21;97712.75;5159377;27;20290;-61
2020/12/29 02:50:58;;;;;;;18.65;11.13;;;;;;;-0.16;91.00;97704.06;5157956;27;20244;-61
2020/12/29 02:53:25;;;;;;;19.75;10.02;;;;;;;-0.11;91.44;97703.38;5159760;27;20281;-61
2020/12/29 02:55:53;;;;;;;19.35;10.77;;;;;;;-0.11;91.22;97698.28;5157518;27;20263;-60
2020/12/29 02:58:19;;;;;;;21.88;11.15;;;;;;;-0.13;91.40;97703.31;5159402;27;20871;-61
2020/12/29 03:00:46;;;;;;;19.02;10.38;;;;;;;-0.10;91.06;97710.16;5157553;27;20570;-61
2020/12/29 03:03:14;;;;;;;21.08;11.20;;;;;;;-0.15;91.04;97708.31;5159463;27;20194;-60
2020/12/29 03:05:40;;;;;;;21.00;10.35;;;;;;;-0.17;91.64;97698.91;5155939;27;20313;-60
2020/12/29 03:08:07;;;;;;;20.23;10.90;;;;;;;-0.23;91.66;97709.72;5158959;27;20197;-61
2020/12/29 03:10:34;;;;;;;19.85;11.10;;;;;;;-0.21;91.80;97713.16;5157519;27;20234;-60
2020/12/29 03:13:02;;;;;;;17.98;10.10;;;;;;;-0.13;91.56;97715.97;5159181;27;20194;-60
2020/12/29 03:15:28;;;;;;;21.63;10.75;;;;;;;-0.16;91.66;97716.72;5157158;27;20666;-61
2020/12/29 03:17:55;;;;;;;21.50;10.80;;;;;;;-0.18;91.65;97718.34;5159346;27;20202;-61
2020/12/29 03:20:21;;;;;;;18.50;10.40;;;;;;;-0.14;91.46;97719.31;5157160;27;20230;-60
2020/12/29 03:22:48;;;;;;;19.88;10.50;;;;;;;-0.14;91.65;97715.09;5158922;27;20289;-60
2020/12/29 03:25:15;;;;;;;19.33;10.40;;;;;;;-0.18;91.68;97723.41;5156445;27;20229;-60
2020/12/29 03:27:42;;;;;;;17.42;9.88;;;;;;;-0.18;91.48;97728.50;5158865;27;20561;-60
2020/12/29 03:30:10;;;;;;;20.15;11.23;;;;;;;-0.15;91.40;97728.59;5156894;27;20309;-61
2020/12/29 03:32:36;;;;;;;15.38;8.90;;;;;;;-0.17;91.33;97729.34;5158855;27;20262;-60
2020/12/29 03:35:08;;;;;;;18.02;9.60;;;;;;;-0.21;91.78;97737.66;5156415;27;20233;-61
2020/12/29 03:37:37;;;;;;;20.38;10.70;;;;;;;-0.19;91.89;97736.03;5158785;27;20202;-60
2020/12/29 03:40:03;;;;;;;17.67;10.13;;;;;;;-0.22;91.84;97729.19;5157030;27;20316;-60
2020/12/29 03:42:30;;;;;;;18.73;9.90;;;;;;;-0.21;91.79;97730.91;5158275;27;20240;-60
2020/12/29 03:44:57;;;;;;;19.45;11.18;;;;;;;-0.20;91.81;97732.63;5156397;27;20248;-60
2020/12/29 03:47:25;;;;;;;20.52;10.52;;;;;;;-0.12;91.66;97729.53;5158486;27;20198;-60
2020/12/29 03:49:52;;;;;;;18.70;10.38;;;;;;;-0.19;91.58;97731.84;5156592;27;20237;-61
2020/12/29 03:52:19;;;;;;;16.00;9.15;;;;;;;-0.16;92.14;97731.06;5158503;27;20232;-60
2020/12/29 03:54:45;;;;;;;20.38;10.23;;;;;;;-0.16;91.44;97729.41;5156502;27;20228;-60
2020/12/29 03:57:12;;;;;;;17.50;10.02;;;;;;;-0.15;91.85;97737.88;5158377;27;20202;-60
2020/12/29 03:59:38;;;;;;;16.83;9.55;;;;;;;-0.12;91.82;97739.66;5156775;27;20659;-60
2020/12/29 04:02:05;;;;;;;22.73;11.65;;;;;;;-0.14;91.82;97737.91;5158101;27;20309;-60
2020/12/29 04:04:33;;;;;;;20.88;10.68;;;;;;;-0.08;91.57;97738.94;5155965;27;20233;-60
2020/12/29 04:07:00;;;;;;;19.75;11.15;;;;;;;-0.12;91.88;97730.38;5158227;27;20690;-60
2020/12/29 04:09:29;;;;;;;20.50;10.60;;;;;;;-0.10;91.36;97735.50;5156805;27;20221;-60
2020/12/29 04:11:55;;;;;;;15.10;8.75;;;;;;;-0.18;91.92;97738.63;5158035;27;20570;-60
2020/12/29 04:14:22;;;;;;;18.50;10.10;;;;;;;-0.16;91.98;97737.00;5155813;27;20232;-60
2020/12/29 04:16:49;;;;;;;18.45;10.05;;;;;;;-0.12;91.62;97727.00;5157825;27;20706;-60
2020/12/29 04:19:15;;;;;;;18.30;9.50;;;;;;;-0.19;91.94;97731.84;5156463;27;20288;-61
2020/12/29 04:21:43;;;;;;;14.73;8.70;;;;;;;-0.16;91.68;97731.94;5157955;27;20202;-60
2020/12/29 04:24:11;;;;;;;13.52;8.35;;;;;;;-0.12;91.77;97732.06;5155958;27;20624;-60
2020/12/29 04:26:37;;;;;;;16.20;8.98;;;;;;;-0.15;91.69;97738.72;5157577;27;20313;-60
2020/12/29 04:29:04;;;;;;;17.52;9.95;;;;;;;-0.15;91.63;97736.19;5156539;27;20239;-60
2020/12/29 04:31:31;;;;;;;16.88;10.13;;;;;;;-0.04;91.43;97728.13;5157856;27;20249;-60
2020/12/29 04:33:58;;;;;;;16.70;9.77;;;;;;;-0.11;91.36;97729.56;5155548;27;20194;-64
2020/12/29 04:36:25;;;;;;;16.45;9.63;;;;;;;-0.05;91.68;97728.94;5157566;27;20222;-61
2020/12/29 04:38:53;;;;;;;17.98;9.60;;;;;;;-0.07;91.74;97740.66;5157423;27;20575;-60
2020/12/29 04:41:19;;;;;;;14.90;8.90;;;;;;;-0.08;91.85;97744.00;5155631;27;20234;-60
2020/12/29 04:43:46;;;;;;;17.40;9.15;;;;;;;-0.14;91.86;97742.13;5157273;27;20501;-61
2020/12/29 04:46:13;;;;;;;20.80;10.45;;;;;;;-0.15;91.95;97748.88;5154426;27;20226;-60
2020/12/29 04:48:40;;;;;;;18.20;10.40;;;;;;;-0.14;91.94;97740.44;5156903;27;20212;-60
2020/12/29 04:51:08;;;;;;;16.25;9.65;;;;;;;-0.19;92.01;97747.03;5155352;27;20269;-60
2020/12/29 04:53:36;;;;;;;19.05;10.25;;;;;;;-0.19;92.07;97744.50;5157031;27;20202;-60
2020/12/29 04:56:08;;;;;;;18.85;10.13;;;;;;;-0.01;91.92;97741.75;5155116;27;20229;-60
2020/12/29 04:58:36;;;;;;;17.27;9.95;;;;;;;-0.05;91.72;97742.44;5156969;27;20724;-60
2020/12/29 05:01:05;;;;;;;16.48;9.25;;;;;;;-0.14;92.01;97740.44;5154650;27;20234;-61
2020/12/29 05:03:42;;;;;;;17.38;9.55;;;;;;;-0.05;91.93;97739.06;5157081;27;20202;-60
2020/12/29 05:06:09;;;;;;;19.08;10.38;;;;;;;0.00;91.85;97735.03;5154697;27;20236;-60
2020/12/29 05:08:37;;;;;;;17.50;9.90;;;;;;;0.15;90.93;97736.38;5156924;27;20611;-60
2020/12/29 05:11:03;;;;;;;17.08;9.57;;;;;;;0.03;91.27;97732.59;5155251;27;20318;-60
2020/12/29 05:13:31;;;;;;;18.90;10.52;;;;;;;0.02;91.54;97730.88;5156963;27;20527;-60
2020/12/29 05:15:57;;;;;;;17.42;10.15;;;;;;;0.19;91.22;97738.19;5154473;27;20504;-60
2020/12/29 05:18:25;;;;;;;17.48;10.52;;;;;;;0.15;91.04;97737.22;5156790;27;20527;-61
2020/12/29 05:20:53;;;;;;;19.38;10.52;;;;;;;0.08;91.28;97738.69;5154952;27;20329;-60
2020/12/29 05:23:19;;;;;;;19.10;10.40;;;;;;;0.00;91.74;97747.72;5156818;27;20675;-61
2020/12/29 05:25:46;;;;;;;23.15;11.48;;;;;;;0.05;91.83;97746.16;5154971;27;20570;-60
2020/12/29 05:28:13;;;;;;;21.88;10.75;;;;;;;-0.07;91.93;97746.63;5157393;27;20305;-60
2020/12/29 05:30:41;;;;;;;21.35;11.32;;;;;;;0.03;91.71;97739.31;5159043;27;20605;-60
2020/12/29 05:33:11;;;;;;;18.77;10.65;;;;;;;0.07;91.72;97739.50;5160738;27;20297;-60
2020/12/29 05:35:38;;;;;;;17.33;10.18;;;;;;;0.09;91.37;97735.34;5159006;27;20317;-60
2020/12/29 05:38:06;;;;;;;21.27;10.38;;;;;;;0.16;91.22;97749.09;5161147;27;20230;-60
2020/12/29 05:40:33;;;;;;;21.48;11.00;;;;;;;0.09;91.19;97737.88;5158684;27;20244;-60
2020/12/29 05:43:01;;;;;;;20.83;11.10;;;;;;;0.05;91.20;97740.25;5159964;27;20198;-61
2020/12/29 05:45:28;;;;;;;20.45;11.00;;;;;;;0.04;91.47;97739.38;5157723;27;20237;-60
2020/12/29 05:47:56;;;;;;;22.73;11.10;;;;;;;0.10;91.27;97747.19;5160208;27;20195;-60
2020/12/29 05:50:24;;;;;;;21.30;11.57;;;;;;;0.06;91.35;97747.91;5158194;27;20320;-60
2020/12/29 05:52:54;;;;;;;22.20;11.32;;;;;;;-0.01;92.02;97751.03;5159862;27;20245;-61
2020/12/29 05:55:22;;;;;;;20.33;11.93;;;;;;;0.09;91.77;97748.03;5158255;27;20253;-61
2020/12/29 05:58:02;;;;;;;20.13;11.05;;;;;;;0.06;91.53;97747.91;5160737;27;20198;-60
2020/12/29 06:00:29;;;;;;;20.45;10.82;;;;;;;0.13;91.45;97747.31;5158840;27;20655;-60
2020/12/29 06:02:58;;;;;;;21.77;11.25;;;;;;;0.04;92.00;97749.53;5160915;27;20501;-60
2020/12/29 06:05:26;;;;;;;26.25;12.73;;;;;;;0.07;92.12;97748.78;5158354;27;20320;-60
2020/12/29 06:07:54;;;;;;;20.23;11.43;;;;;;;0.02;92.07;97741.00;5160586;27;20247;-61
2020/12/29 06:10:22;;;;;;;19.80;10.90;;;;;;;0.16;91.91;97741.50;5159100;27;20242;-60
2020/12/29 06:12:53;;;;;;;22.27;11.30;;;;;;;0.29;91.48;97750.38;5160365;27;20538;-60
2020/12/29 06:15:26;;;;;;;19.02;10.80;;;;;;;0.28;91.17;97742.72;5158317;27;20539;-60
2020/12/29 06:17:58;;;;;;;20.35;11.10;;;;;;;0.28;91.31;97742.72;5160484;27;20202;-60
2020/12/29 06:20:45;;;;;;;22.45;11.63;;;;;;;0.30;91.15;97761.41;5158740;27;20257;-60
2020/12/29 06:23:18;;;;;;;22.98;11.75;;;;;;;0.20;91.33;97755.16;5139768;27;20531;-60
2020/12/29 06:25:46;;;;;;;19.37;10.30;;;;;;;0.19;91.51;97758.47;5137327;27;20318;-60
2020/12/29 06:28:14;;;;;;;23.15;11.90;;;;;;;0.20;91.33;97761.06;5139335;27;20881;-60
2020/12/29 06:30:41;;;;;;;22.63;12.38;;;;;;;0.20;91.75;97762.75;5137577;27;20314;-60
2020/12/29 06:33:09;;;;;;;21.45;12.07;;;;;;;0.15;92.05;97771.88;5139293;27;20290;-60
2020/12/29 06:35:36;;;;;;;19.65;10.90;;;;;;;0.21;91.89;97780.53;5136968;27;20310;-60
2020/12/29 06:38:12;;;;;;;19.63;11.15;;;;;;;0.19;91.98;97783.81;5139364;27;20203;-60
2020/12/29 06:40:39;;;;;;;21.55;11.18;;;;;;;0.34;92.81;97786.03;5136054;27;20236;-60
2020/12/29 06:43:07;;;;;;;23.15;12.07;;;;;;;0.62;92.74;97781.94;5138993;27;20203;-60
2020/12/29 06:45:36;;;;;;;24.52;11.70;;;;;;;0.40;91.17;97793.88;5136686;27;20233;-60
2020/12/29 06:48:15;;;;;;;22.45;12.55;;;;;;;0.85;92.42;97776.72;5138853;27;20206;-60
2020/12/29 06:50:42;;;;;;;24.63;12.85;;;;;;;1.23;89.66;97771.16;5137372;27;20261;-60
2020/12/29 06:53:08;;;;;;;21.83;11.18;;;;;;;1.21;90.44;97772.00;5138993;27;20250;-60
2020/12/29 06:55:37;;;;;;;20.63;11.35;;;;;;;1.51;88.96;97780.50;5136856;27;20254;-61
2020/12/29 06:58:04;;;;;;;20.70;10.65;;;;;;;1.10;88.47;97773.31;5138789;27;20202;-60
2020/12/29 07:00:31;;;;;;;19.75;10.63;;;;;;;1.17;88.90;97784.53;5136971;27;20231;-60
2020/12/29 07:02:58;;;;;;;20.05;10.75;;;;;;;0.85;89.04;97779.28;5138945;27;20281;-61
2020/12/29 07:05:26;;;;;;;18.33;10.60;;;;;;;1.06;89.08;97784.19;5136578;27;20234;-60
2020/12/29 07:07:56;;;;;;;20.88;10.80;;;;;;;1.21;88.49;97783.81;5138565;27;20203;-61
2020/12/29 07:10:27;;;;;;;22.07;11.00;;;;;;;1.03;88.97;97792.56;5139323;27;20317;-60
2020/12/29 07:12:54;;;;;;;19.13;9.63;;;;;;;1.35;89.41;97800.34;5159115;27;20418;-60
2020/12/29 07:15:22;;;;;;;19.25;11.40;;;;;;;1.14;89.18;97805.63;5157288;27;20471;-60
2020/12/29 07:17:56;;;;;;;24.52;11.80;;;;;;;1.29;88.84;97799.31;5159292;27;20202;-61
2020/12/29 07:20:23;;;;;;;22.92;11.38;;;;;;;1.35;88.53;97809.66;5157502;27;20258;-61
2020/12/29 07:22:55;;;;;;;19.75;11.18;;;;;;;0.90;88.90;97811.63;5159161;27;20241;-60
2020/12/29 07:25:24;;;;;;;21.30;11.07;;;;;;;0.79;90.01;97812.94;5156855;27;20415;-60
2020/12/29 07:27:54;;;;;;;19.30;11.17;;;;;;;0.71;90.09;97824.53;5158880;27;20595;-60
2020/12/29 07:30:20;;;;;;;23.67;11.13;;;;;;;0.64;90.75;97824.31;5157393;27;20488;-60
2020/12/29 07:32:47;;;;;;;25.70;12.00;;;;;;;0.65;90.79;97827.69;5159025;27;20194;-60
2020/12/29 07:35:13;;;;;;;22.67;11.60;;;;;;;0.63;91.08;97829.34;5156853;27;20233;-60
2020/12/29 07:37:41;;;;;;;23.07;11.70;;;;;;;0.63;91.12;97834.41;5158849;27;20486;-60
2020/12/29 07:40:08;;;;;;;20.03;10.60;;;;;;;0.65;90.79;97831.13;5157103;27;20533;-60
2020/12/29 07:42:35;;;;;;;24.50;12.32;;;;;;;0.58;91.27;97838.47;5158823;27;20456;-60
2020/12/29 07:45:02;;;;;;;22.73;11.77;;;;;;;0.50;91.22;97843.25;5155771;27;20253;-60
2020/12/29 07:47:28;;;;;;;30.48;12.77;;;;;;;0.45;91.89;97852.41;5158724;27;20197;-60
2020/12/29 07:49:55;;;;;;;37.15;13.02;;;;;;;0.56;91.71;97861.22;5156874;27;20260;-60
2020/12/29 07:52:22;;;;;;;24.80;12.80;;;;;;;0.67;91.20;97874.31;5158087;27;20283;-61
2020/12/29 07:55:05;;;;;;;27.17;13.10;;;;;;;0.56;91.39;97871.38;5156533;27;20820;-60
2020/12/29 07:57:34;;;;;;;24.50;13.00;;;;;;;0.46;91.82;97874.41;5158568;27;20455;-60
2020/12/29 08:00:10;;;;;;;25.48;12.55;;;;;;;0.45;92.23;97873.53;5156585;27;20457;-61
2020/12/29 08:02:37;;;;;;;32.85;15.20;;;;;;;0.59;92.23;97880.78;5158556;27;20197;-61
2020/12/29 08:05:04;;;;;;;26.33;12.60;;;;;;;0.56;91.95;97883.22;5156093;27;20226;-60
2020/12/29 08:07:31;;;;;;;27.42;13.90;;;;;;;0.56;92.13;97891.69;5158568;27;20499;-60
2020/12/29 08:10:07;;;;;;;37.95;17.20;;;;;;;0.53;92.33;97891.59;5156420;27;20282;-61
2020/12/29 08:12:34;;;;;;;35.20;16.80;;;;;;;0.76;91.64;97896.59;5157943;27;20239;-61
2020/12/29 08:15:01;;;;;;;26.98;13.27;;;;;;;0.82;91.74;97901.88;5156005;27;20822;-61
2020/12/29 08:17:28;;;;;;;32.72;13.40;;;;;;;0.62;91.91;97901.22;5158007;27;20292;-60
2020/12/29 08:19:59;;;;;;;31.80;14.30;;;;;;;0.57;92.18;97898.50;5156482;27;20237;-60
2020/12/29 08:22:29;;;;;;;30.70;14.15;;;;;;;0.59;92.43;97896.00;5157767;27;20772;-61
2020/12/29 08:24:56;;;;;;;34.47;15.23;;;;;;;0.76;92.06;97909.28;5155862;27;20257;-60
2020/12/29 08:27:23;;;;;;;43.67;16.50;;;;;;;0.76;91.71;97909.28;5157768;27;20452;-60
2020/12/29 08:29:51;;;;;;;33.50;15.23;;;;;;;0.81;91.83;97917.94;5156078;27;20487;-60
2020/12/29 08:32:21;;;;;;;37.15;16.20;;;;;;;0.88;92.01;97914.78;5157744;27;20710;-61
2020/12/29 08:34:48;;;;;;;34.55;16.05;;;;;;;0.91;91.52;97916.56;5155796;27;20308;-60
2020/12/29 08:37:18;;;;;;;36.15;16.80;;;;;;;0.89;91.50;97924.16;5157853;27;20205;-60
2020/12/29 08:39:53;;;;;;;37.30;16.98;;;;;;;0.74;92.61;97921.94;5157207;27;20320;-60
2020/12/29 08:42:20;;;;;;;36.05;17.27;;;;;;;0.87;92.48;97923.22;5157673;27;20228;-61
2020/12/29 08:44:47;;;;;;;38.17;18.10;;;;;;;0.81;92.67;97923.00;5154976;27;20320;-60
2020/12/29 08:47:14;;;;;;;42.90;18.40;;;;;;;0.82;92.79;97919.66;5157782;27;20308;-60
2020/12/29 08:49:41;;;;;;;38.87;17.90;;;;;;;1.11;91.72;97932.50;5155911;27;20485;-60
2020/12/29 08:52:08;;;;;;;34.88;16.90;;;;;;;1.01;91.85;97925.38;5157698;27;20509;-60
2020/12/29 08:54:37;;;;;;;38.90;17.00;;;;;;;1.19;91.83;97930.25;5155526;27;20308;-60
2020/12/29 08:57:06;;;;;;;43.53;18.23;;;;;;;1.16;91.79;97941.16;5157355;27;20297;-60
2020/12/29 08:59:35;;;;;;;40.97;15.27;;;;;;;1.23;92.12;97936.28;5156158;27;20312;-60
2020/12/29 09:02:02;;;;;;;40.03;17.70;;;;;;;1.35;91.68;97941.78;5157554;27;20206;-60
2020/12/29 09:04:32;;;;;;;42.60;18.95;;;;;;;1.31;91.70;97950.09;5158617;27;20538;-60
2020/12/29 09:07:02;;;;;;;39.30;17.70;;;;;;;1.31;91.92;97948.44;5161164;27;20297;-60
2020/12/29 09:09:29;;;;;;;43.50;19.50;;;;;;;1.30;92.14;97940.75;5160176;27;20444;-60
2020/12/29 09:12:07;;;;;;;37.70;16.93;;;;;;;1.36;92.45;97946.03;5161971;27;20847;-61
2020/12/29 09:14:34;;;;;;;39.30;18.77;;;;;;;1.30;92.53;97943.28;5159242;27;20498;-60
2020/12/29 09:17:02;;;;;;;36.10;17.60;;;;;;;1.30;92.38;97943.28;5161392;27;20447;-60
2020/12/29 09:19:30;;;;;;;39.33;18.90;;;;;;;1.47;92.26;97954.91;5159417;27;20554;-59
2020/12/29 09:22:06;;;;;;;35.60;16.53;;;;;;;1.64;91.89;97954.56;5161366;27;20473;-60
2020/12/29 09:24:34;;;;;;;37.37;18.73;;;;;;;1.49;92.05;97970.19;5159103;27;20838;-60
2020/12/29 09:27:01;;;;;;;42.67;18.83;;;;;;;1.51;92.14;97972.75;5161203;27;20493;-60
2020/12/29 09:29:32;;;;;;;40.03;18.63;;;;;;;1.51;92.08;97976.19;5159634;27;20734;-60
2020/12/29 09:31:58;;;;;;;38.20;18.52;;;;;;;1.47;92.71;97981.97;5161312;27;20467;-60
2020/12/29 09:34:25;;;;;;;41.83;19.67;;;;;;;1.57;92.36;97980.59;5159048;27;20234;-60
2020/12/29 09:36:52;;;;;;;43.93;19.77;;;;;;;1.53;92.38;97978.78;5161004;27;20565;-60
2020/12/29 09:39:19;;;;;;;37.83;18.27;;;;;;;1.58;92.18;97987.41;5159505;27;20494;-60
2020/12/29 09:41:54;;;;;;;40.50;18.58;;;;;;;1.70;91.75;98000.53;5161095;27;20206;-60
2020/12/29 09:44:21;;;;;;;45.40;20.33;;;;;;;1.79;91.40;98005.03;5158548;27;20236;-60
2020/12/29 09:46:48;;;;;;;45.13;21.40;;;;;;;1.68;91.93;98014.88;5160743;27;20761;-60
2020/12/29 09:49:14;;;;;;;42.53;20.03;;;;;;;1.78;91.89;98017.72;5158897;27;20457;-60
2020/12/29 09:51:41;;;;;;;44.87;21.47;;;;;;;1.90;91.67;98028.31;5160986;27;20530;-60
2020/12/29 09:54:08;;;;;;;40.37;20.83;;;;;;;1.73;91.92;98023.53;5158913;27;20732;-60
2020/12/29 09:56:35;;;;;;;44.00;19.33;;;;;;;1.80;91.68;98027.09;5160661;27;20450;-60
2020/12/29 09:59:01;;;;;;;42.30;20.00;;;;;;;1.94;91.85;98029.28;5148924;27;20533;-61
2020/12/29 10:01:29;;;;;;;41.53;20.47;;;;;;;2.10;91.13;98030.63;5159583;27;20547;-60
2020/12/29 10:03:55;;;;;;;43.67;21.17;;;;;;;2.09;91.19;98027.19;5160431;27;20448;-60
2020/12/29 10:06:22;;;;;;;42.93;22.00;;;;;;;2.32;90.11;98028.75;5159780;27;20556;-60
2020/12/29 10:08:48;;;;;;;42.63;19.83;;;;;;;2.05;90.62;98032.16;5160805;27;20426;-60
2020/12/29 10:11:16;;;;;;;39.40;18.83;;;;;;;1.97;91.09;98034.44;5158699;27;20913;-60
2020/12/29 10:13:42;;;;;;;39.17;18.40;;;;;;;1.88;91.04;98040.09;5160525;27;20524;-60
2020/12/29 10:16:09;;;;;;;32.93;16.90;;;;;;;1.93;91.55;98033.47;5157780;27;20481;-60
2020/12/29 10:18:36;;;;;;;34.80;18.10;;;;;;;2.08;91.21;98028.03;5159910;27;20506;-60
2020/12/29 10:21:04;;;;;;;36.70;19.03;;;;;;;2.07;91.28;98031.38;5158419;27;20456;-60
2020/12/29 10:23:31;;;;;;;38.10;18.70;;;;;;;2.15;90.93;98029.06;5160236;27;20542;-60
2020/12/29 10:25:57;;;;;;;38.90;19.23;;;;;;;2.22;90.77;98030.13;5158209;27;20506;-60
2020/12/29 10:28:25;;;;;;;30.67;16.70;;;;;;;2.03;91.30;98034.63;5159860;27;20546;-60
2020/12/29 10:30:51;;;;;;;36.17;18.60;;;;;;;2.04;91.14;98035.50;5158350;27;20476;-60
2020/12/29 10:33:18;;;;;;;28.30;14.23;;;;;;;1.96;90.99;98027.63;5160277;27;20421;-60
2020/12/29 10:35:44;;;;;;;32.87;15.43;;;;;;;1.88;91.93;98033.34;5157800;27;20499;-60
2020/12/29 10:38:11;;;;;;;26.37;12.80;;;;;;;1.91;90.95;98030.03;5160104;27;20526;-60
2020/12/29 10:40:38;;;;;;;33.93;17.03;;;;;;;2.07;91.12;98025.41;5158231;27;20563;-60
2020/12/29 10:43:04;;;;;;;12.20;7.03;;;;;;;2.05;90.35;98037.25;5159700;27;20433;-60
2020/12/29 10:45:32;;;;;;;31.30;16.00;;;;;;;1.88;91.07;98042.63;5157479;27;20481;-59
2020/12/29 10:47:58;;;;;;;32.83;15.90;;;;;;;1.96;90.71;98045.44;5160032;27;20757;-60
2020/12/29 10:50:25;;;;;;;26.30;13.40;;;;;;;1.81;90.73;98044.13;5146427;27;20545;-60
2020/12/29 10:52:51;;;;;;;25.10;12.63;;;;;;;1.81;91.06;98048.31;5159445;27;20456;-60
2020/12/29 10:55:18;;;;;;;25.87;13.80;;;;;;;1.92;90.62;98039.38;5157679;27;20483;-60
2020/12/29 10:57:45;;;;;;;24.13;9.70;;;;;;;1.88;91.04;98040.09;5159542;27;20451;-60
2020/12/29 11:00:11;;;;;;;28.10;13.63;;;;;;;1.84;90.95;98038.28;5157612;27;20865;-60
2020/12/29 11:02:39;;;;;;;25.63;12.40;;;;;;;1.84;90.56;98028.94;5159647;27;20430;-59
2020/12/29 11:05:06;;;;;;;28.00;14.97;;;;;;;1.95;90.55;98036.94;5157020;27;20479;-53
2020/12/29 11:07:33;;;;;;;34.80;16.40;;;;;;;2.04;91.17;98035.50;5156872;27;20547;-58
2020/12/29 11:09:59;;;;;;;16.87;8.27;;;;;;;2.00;90.81;98045.56;5157117;27;20529;-55
2020/12/29 11:12:26;;;;;;;28.73;12.97;;;;;;;2.10;91.17;98053.53;5159081;27;20484;-58
2020/12/29 11:14:52;;;;;;;21.60;10.70;;;;;;;2.00;90.28;98040.47;5148620;27;20456;-57
2020/12/29 11:17:21;;;;;;;29.90;12.00;;;;;;;2.05;90.61;98042.31;5159128;27;20452;-57
2020/12/29 11:19:49;;;;;;;26.30;12.53;;;;;;;2.02;90.60;98040.53;5157275;27;20847;-59
2020/12/29 11:22:15;;;;;;;25.97;11.73;;;;;;;2.15;91.06;98040.13;5158942;27;20451;-60
2020/12/29 11:24:42;;;;;;;24.33;12.57;;;;;;;1.99;90.72;98046.41;5156766;27;20474;-57
2020/12/29 11:27:08;;;;;;;27.07;13.13;;;;;;;2.12;90.51;98041.69;5157527;27;20538;-57